createdAt,value
2023-08-26T00:02:43.500Z,17.66
2023-08-26T00:07:33.481Z,17.14
2023-08-26T00:12:23.606Z,17.33
2023-08-26T00:17:13.958Z,17.32
2023-08-26T00:22:06.978Z,17.27
2023-08-26T00:26:56.941Z,17.16
2023-08-26T00:31:46.936Z,16.79
2023-08-26T00:36:37.039Z,16.93
2023-08-26T00:41:29.746Z,16.85
2023-08-26T00:46:20.012Z,16.74
2023-08-26T00:51:10.878Z,16.50
2023-08-26T00:56:00.881Z,16.59
2023-08-26T01:00:54.171Z,16.44
2023-08-26T01:05:44.471Z,16.43
2023-08-26T01:10:46.260Z,16.33
2023-08-26T01:15:42.109Z,16.12
2023-08-26T01:20:35.541Z,16.01
2023-08-26T01:25:28.157Z,15.94
2023-08-26T01:30:20.924Z,15.82
2023-08-26T01:35:18.666Z,15.87
2023-08-26T01:40:14.009Z,15.79
2023-08-26T01:45:07.767Z,15.61
2023-08-26T01:49:57.766Z,15.66
2023-08-26T01:54:58.390Z,15.63
2023-08-26T01:59:48.444Z,15.46
2023-08-26T02:04:42.291Z,15.34
2023-08-26T02:09:32.332Z,15.44
2023-08-26T02:14:22.375Z,15.13
2023-08-26T02:19:13.642Z,15.27
2023-08-26T02:24:06.507Z,15.40
2023-08-26T02:28:56.545Z,15.23
2023-08-26T02:33:46.752Z,15.30
2023-08-26T02:38:36.902Z,15.29
2023-08-26T02:43:29.459Z,15.25
2023-08-26T02:48:21.329Z,15.28
2023-08-26T02:53:11.294Z,15.21
2023-08-26T02:58:01.339Z,15.10
2023-08-26T03:02:54.000Z,15.13
2023-08-26T03:07:44.173Z,14.95
2023-08-26T03:12:34.253Z,14.95
2023-08-26T03:17:25.214Z,14.88
2023-08-26T03:22:17.882Z,14.98
2023-08-26T03:27:09.027Z,14.95
2023-08-26T03:31:59.204Z,14.89
2023-08-26T03:36:49.700Z,14.86
2023-08-26T03:41:46.353Z,14.82
2023-08-26T03:46:36.457Z,14.78
2023-08-26T03:51:26.550Z,14.65
2023-08-26T03:56:17.888Z,14.71
2023-08-26T04:01:10.555Z,14.49
2023-08-26T04:06:02.277Z,14.42
2023-08-26T04:10:52.278Z,14.39
2023-08-26T04:15:43.673Z,14.57
2023-08-26T04:20:37.468Z,14.45
2023-08-26T04:25:35.070Z,14.43
2023-08-26T04:30:25.254Z,14.28
2023-08-26T04:35:17.452Z,14.42
2023-08-26T04:40:14.320Z,14.42
2023-08-26T04:45:04.553Z,14.37
2023-08-26T04:49:54.478Z,14.33
2023-08-26T04:54:44.508Z,14.19
2023-08-26T04:59:37.450Z,14.25
2023-08-26T05:04:27.486Z,14.35
2023-08-26T05:09:35.038Z,14.34
2023-08-26T05:14:25.130Z,14.33
2023-08-26T05:19:19.111Z,14.20
2023-08-26T05:24:10.397Z,14.42
2023-08-26T05:29:05.766Z,14.47
2023-08-26T05:33:57.567Z,14.29
2023-08-26T05:38:50.378Z,14.56
2023-08-26T05:43:40.897Z,14.56
2023-08-26T05:48:32.133Z,14.64
2023-08-26T05:53:22.280Z,14.70
2023-08-26T05:58:14.933Z,14.55
2023-08-26T06:03:05.098Z,14.69
2023-08-26T06:07:55.985Z,14.95
2023-08-26T06:12:46.450Z,15.01
2023-08-26T06:17:42.852Z,14.35
2023-08-26T06:22:35.914Z,14.94
2023-08-26T06:27:28.604Z,14.95
2023-08-26T06:32:18.948Z,15.04
2023-08-26T06:37:20.370Z,15.03
2023-08-26T06:42:12.097Z,15.03
2023-08-26T06:47:14.439Z,15.25
2023-08-26T06:52:04.733Z,15.12
2023-08-26T06:56:58.705Z,15.25
2023-08-26T07:01:48.868Z,15.54
2023-08-26T07:06:40.359Z,15.46
2023-08-26T07:11:30.472Z,15.23
2023-08-26T07:16:23.707Z,15.29
2023-08-26T07:21:18.351Z,15.52
2023-08-26T07:26:08.352Z,15.62
2023-08-26T07:30:58.438Z,15.42
2023-08-26T07:35:51.159Z,15.65
2023-08-26T07:40:43.222Z,15.78
2023-08-26T07:45:33.422Z,15.69
2023-08-26T07:50:23.433Z,16.02
2023-08-26T07:55:18.667Z,16.10
2023-08-26T08:00:10.696Z,16.21
2023-08-26T08:05:04.186Z,16.33
2023-08-26T08:09:57.364Z,16.45
2023-08-26T08:14:49.957Z,16.57
2023-08-26T08:19:43.784Z,16.59
2023-08-26T08:24:34.193Z,16.75
2023-08-26T08:29:24.223Z,16.87
2023-08-26T08:34:17.821Z,16.54
2023-08-26T08:39:08.564Z,16.80
2023-08-26T08:44:05.261Z,16.95
2023-08-26T08:48:59.520Z,17.57
2023-08-26T08:53:52.921Z,17.93
2023-08-26T08:58:44.801Z,18.61
2023-08-26T09:03:36.290Z,19.17
2023-08-26T09:08:29.006Z,19.16
2023-08-26T09:13:22.821Z,18.84
2023-08-26T09:18:16.744Z,19.24
2023-08-26T09:23:09.178Z,19.43
2023-08-26T09:28:00.358Z,19.66
2023-08-26T09:32:54.673Z,19.82
2023-08-26T09:37:49.654Z,19.59
2023-08-26T09:42:40.219Z,19.44
2023-08-26T09:47:32.996Z,19.13
2023-08-26T09:52:25.759Z,19.02
2023-08-26T09:57:16.034Z,18.88
2023-08-26T10:02:19.962Z,18.81
2023-08-26T10:07:10.864Z,18.70
2023-08-26T10:12:09.563Z,18.53
2023-08-26T10:17:04.200Z,18.45
2023-08-26T10:22:05.956Z,18.52
2023-08-26T10:26:56.415Z,18.73
2023-08-26T10:31:49.490Z,19.52
2023-08-26T10:36:41.345Z,20.08
2023-08-26T10:41:39.212Z,20.53
2023-08-26T10:46:37.409Z,20.75
2023-08-26T10:51:30.494Z,21.35
2023-08-26T10:56:23.533Z,21.56
2023-08-26T11:01:15.404Z,21.66
2023-08-26T11:06:09.962Z,21.91
2023-08-26T11:11:02.859Z,21.92
2023-08-26T11:15:55.737Z,22.23
2023-08-26T11:20:47.759Z,21.73
2023-08-26T11:25:40.409Z,21.39
2023-08-26T11:30:39.893Z,20.89
2023-08-26T11:35:32.712Z,20.81
2023-08-26T11:40:24.005Z,20.84
2023-08-26T11:45:14.373Z,20.72
2023-08-26T11:50:08.332Z,19.90
2023-08-26T11:54:58.410Z,19.65
2023-08-26T11:59:48.525Z,19.85
2023-08-26T12:04:41.684Z,19.78
2023-08-26T12:09:37.332Z,19.77
2023-08-26T12:14:28.831Z,19.50
2023-08-26T12:19:21.232Z,19.49
2023-08-26T12:24:12.344Z,19.53
2023-08-26T12:29:06.122Z,19.23
2023-08-26T12:34:00.379Z,19.43
2023-08-26T12:38:50.836Z,19.21
2023-08-26T12:43:42.063Z,18.96
2023-08-26T12:53:36.102Z,18.62
2023-08-26T12:58:29.671Z,18.58
2023-08-26T13:03:20.014Z,18.65
2023-08-26T13:08:13.368Z,18.88
2023-08-26T13:13:10.666Z,18.69
2023-08-26T13:18:01.348Z,18.68
2023-08-26T13:22:55.734Z,18.35
2023-08-26T13:27:51.718Z,17.94
2023-08-26T13:32:42.467Z,18.23
2023-08-26T13:37:32.600Z,18.13
2023-08-26T13:42:25.238Z,18.08
2023-08-26T13:47:21.957Z,18.00
2023-08-26T13:52:15.331Z,18.09
2023-08-26T13:57:06.416Z,18.10
2023-08-26T14:01:57.008Z,18.18
2023-08-26T14:06:52.996Z,18.17
2023-08-26T14:11:44.554Z,18.07
2023-08-26T14:16:36.194Z,18.03
2023-08-26T14:21:37.853Z,18.19
2023-08-26T14:26:33.652Z,18.25
2023-08-26T14:31:30.522Z,17.82
2023-08-26T14:36:23.541Z,18.30
2023-08-26T14:41:14.742Z,18.28
2023-08-26T14:46:14.875Z,18.76
2023-08-26T14:51:13.495Z,18.92
2023-08-26T14:56:12.972Z,19.02
2023-08-26T15:01:06.659Z,19.03
2023-08-26T15:06:08.458Z,19.04
2023-08-26T15:11:06.225Z,19.03
2023-08-26T15:15:56.284Z,18.96
2023-08-26T15:20:47.455Z,19.30
2023-08-26T15:25:51.740Z,19.26
2023-08-26T15:30:57.461Z,19.15
2023-08-26T15:35:54.323Z,18.61
2023-08-26T15:40:55.475Z,18.84
2023-08-26T15:45:56.268Z,18.23
2023-08-26T15:50:47.361Z,18.31
2023-08-26T15:55:40.504Z,18.41
2023-08-26T16:00:35.105Z,18.35
2023-08-26T16:05:25.229Z,18.48
2023-08-26T16:10:15.739Z,18.39
2023-08-26T16:15:06.315Z,18.26
2023-08-26T16:19:59.957Z,18.44
2023-08-26T16:24:50.210Z,17.84
2023-08-26T16:29:40.368Z,18.37
2023-08-26T16:34:30.511Z,18.78
2023-08-26T16:39:23.598Z,18.94
2023-08-26T16:44:13.737Z,18.96
2023-08-26T16:49:06.108Z,19.08
2023-08-26T16:53:56.280Z,19.17
2023-08-26T16:58:50.272Z,19.29
2023-08-26T17:03:41.547Z,19.42
2023-08-26T17:08:31.621Z,19.27
2023-08-26T17:13:22.028Z,19.26
2023-08-26T17:18:15.606Z,19.45
2023-08-26T17:23:05.576Z,19.50
2023-08-26T17:27:55.882Z,19.44
2023-08-26T17:32:50.196Z,19.66
2023-08-26T17:37:42.859Z,19.70
2023-08-26T17:42:33.908Z,19.53
2023-08-26T17:47:24.107Z,19.37
2023-08-26T17:52:14.393Z,19.20
2023-08-26T17:57:08.802Z,19.15
2023-08-26T18:02:02.098Z,19.06
2023-08-26T18:06:52.199Z,18.95
2023-08-26T18:11:45.167Z,18.71
2023-08-26T18:16:49.554Z,18.75
2023-08-26T18:21:44.035Z,18.67
2023-08-26T18:26:35.696Z,18.54
2023-08-26T18:31:27.360Z,18.17
2023-08-26T18:36:25.351Z,18.44
2023-08-26T18:41:19.764Z,18.35
2023-08-26T18:46:10.568Z,18.24
2023-08-26T18:51:02.136Z,18.11
2023-08-26T18:55:56.347Z,18.21
2023-08-26T19:00:46.590Z,17.88
2023-08-26T19:05:41.071Z,18.06
2023-08-26T19:10:33.240Z,17.78
2023-08-26T19:15:26.472Z,17.76
2023-08-26T19:20:20.214Z,17.90
2023-08-26T19:25:11.471Z,17.84
2023-08-26T19:30:04.880Z,17.67
2023-08-26T19:35:00.838Z,17.69
2023-08-26T19:39:53.236Z,17.59
2023-08-26T19:44:45.738Z,17.53
2023-08-26T19:49:35.759Z,17.36
2023-08-26T19:54:28.658Z,17.37
2023-08-26T19:59:23.095Z,17.03
2023-08-26T20:04:14.776Z,17.24
2023-08-26T20:09:05.302Z,16.73
2023-08-26T20:14:04.955Z,17.07
2023-08-26T20:18:58.042Z,16.93
2023-08-26T20:23:48.623Z,16.99
2023-08-26T20:28:41.856Z,16.81
2023-08-26T20:33:35.668Z,16.95
2023-08-26T20:38:25.896Z,16.67
2023-08-26T20:43:15.936Z,16.64
2023-08-26T20:48:06.047Z,16.71
2023-08-26T20:52:58.901Z,16.72
2023-08-26T20:57:52.182Z,16.61
2023-08-26T21:02:42.147Z,16.49
2023-08-26T21:07:32.243Z,16.68
2023-08-26T21:12:25.637Z,16.53
2023-08-26T21:17:16.339Z,16.53
2023-08-26T21:22:07.899Z,16.23
2023-08-26T21:26:59.012Z,15.86
2023-08-26T21:31:51.970Z,16.26
2023-08-26T21:36:42.212Z,16.23
2023-08-26T21:41:32.452Z,16.21
2023-08-26T21:46:22.687Z,16.17
2023-08-26T21:51:16.424Z,16.18
2023-08-26T21:56:08.776Z,16.08
2023-08-26T22:01:02.583Z,16.11
2023-08-26T22:05:55.372Z,15.98
2023-08-26T22:10:47.942Z,16.04
2023-08-26T22:15:43.512Z,16.03
2023-08-26T22:20:36.311Z,15.90
2023-08-26T22:25:28.586Z,15.99
2023-08-26T22:30:21.355Z,16.03
2023-08-26T22:35:13.103Z,16.03
2023-08-26T22:40:05.337Z,15.96
2023-08-26T22:44:55.457Z,15.97
2023-08-26T22:49:48.131Z,15.68
2023-08-26T22:54:38.098Z,15.88
2023-08-26T22:59:31.648Z,15.94
2023-08-26T23:04:22.517Z,15.96
2023-08-26T23:09:15.186Z,15.86
2023-08-26T23:14:07.857Z,15.96
2023-08-26T23:18:58.990Z,15.83
2023-08-26T23:23:51.055Z,15.84
2023-08-26T23:28:45.131Z,15.85
2023-08-26T23:33:35.105Z,15.84
2023-08-26T23:38:25.081Z,15.77
2023-08-26T23:43:15.204Z,15.74
2023-08-26T23:48:08.647Z,15.61
2023-08-26T23:52:58.971Z,15.56
2023-08-26T23:57:49.377Z,15.49
